sensor_id;sensor_type;location;lat;lon;timestamp;pressure;altitude;pressure_sealevel;temperature;humidity
67738;BME280;54534;43.612;1.572;2022-10-16T00:01:15;98873.47;;;22.91;52.98
67738;BME280;54534;43.612;1.572;2022-10-16T00:03:41;98869.13;;;22.89;53.06
67738;BME280;54534;43.612;1.572;2022-10-16T00:06:08;98866.44;;;22.89;53.04
67738;BME280;54534;43.612;1.572;2022-10-16T00:08:35;98859.38;;;22.88;52.85
67738;BME280;54534;43.612;1.572;2022-10-16T00:11:04;98867.44;;;22.88;53.07
67738;BME280;54534;43.612;1.572;2022-10-16T00:13:30;98872.78;;;22.88;52.92
67738;BME280;54534;43.612;1.572;2022-10-16T00:15:57;98871.94;;;22.88;52.93
67738;BME280;54534;43.612;1.572;2022-10-16T00:18:24;98864.75;;;22.88;53.11
67738;BME280;54534;43.612;1.572;2022-10-16T00:20:50;98865.78;;;22.87;53.02
67738;BME280;54534;43.612;1.572;2022-10-16T00:23:15;98856.88;;;22.87;53.04
67738;BME280;54534;43.612;1.572;2022-10-16T00:25:41;98857.72;;;22.87;53.05
67738;BME280;54534;43.612;1.572;2022-10-16T00:28:06;98857.72;;;22.87;53.03
67738;BME280;54534;43.612;1.572;2022-10-16T00:30:32;98856.03;;;22.86;53.02
67738;BME280;54534;43.612;1.572;2022-10-16T00:32:57;98857.88;;;22.86;53.06
67738;BME280;54534;43.612;1.572;2022-10-16T00:35:23;98860.56;;;22.86;52.99
67738;BME280;54534;43.612;1.572;2022-10-16T00:37:48;98866.75;;;22.86;53.03
67738;BME280;54534;43.612;1.572;2022-10-16T00:40:14;98864.25;;;22.85;52.89
67738;BME280;54534;43.612;1.572;2022-10-16T00:42:39;98858.91;;;22.85;52.98
67738;BME280;54534;43.612;1.572;2022-10-16T00:45:05;98854.84;;;22.81;52.93
67738;BME280;54534;43.612;1.572;2022-10-16T00:47:35;98862.56;;;22.84;52.96
67738;BME280;54534;43.612;1.572;2022-10-16T00:50:09;98861.56;;;22.85;52.95
67738;BME280;54534;43.612;1.572;2022-10-16T00:52:39;98862.56;;;22.84;53.03
67738;BME280;54534;43.612;1.572;2022-10-16T00:55:08;98865.41;;;22.82;52.84
67738;BME280;54534;43.612;1.572;2022-10-16T00:57:34;98861.72;;;22.83;53.06
67738;BME280;54534;43.612;1.572;2022-10-16T01:00:00;98867.06;;;22.83;52.99
67738;BME280;54534;43.612;1.572;2022-10-16T01:02:26;98863.56;;;22.83;53.08
67738;BME280;54534;43.612;1.572;2022-10-16T01:04:52;98861.88;;;22.82;53.00
67738;BME280;54534;43.612;1.572;2022-10-16T01:10:06;98867.25;;;22.82;53.00
67738;BME280;54534;43.612;1.572;2022-10-16T01:12:38;98868.25;;;22.81;52.93
67738;BME280;54534;43.612;1.572;2022-10-16T01:15:14;98868.25;;;22.81;53.05
67738;BME280;54534;43.612;1.572;2022-10-16T01:20:33;98870.91;;;22.81;53.04
67738;BME280;54534;43.612;1.572;2022-10-16T01:28:49;98870.25;;;22.78;52.98
67738;BME280;54534;43.612;1.572;2022-10-16T01:31:19;98866.72;;;22.78;52.96
67738;BME280;54534;43.612;1.572;2022-10-16T01:33:53;98871.22;;;22.77;53.06
67738;BME280;54534;43.612;1.572;2022-10-16T01:36:26;98864.03;;;22.78;52.86
67738;BME280;54534;43.612;1.572;2022-10-16T01:38:58;98866.72;;;22.78;52.94
67738;BME280;54534;43.612;1.572;2022-10-16T01:41:42;98865.88;;;22.77;52.94
67738;BME280;54534;43.612;1.572;2022-10-16T01:44:11;98865.88;;;22.77;53.15
67738;BME280;54534;43.612;1.572;2022-10-16T01:46:41;98865.88;;;22.77;53.28
67738;BME280;54534;43.612;1.572;2022-10-16T01:49:09;98865.06;;;22.77;52.89
67738;BME280;54534;43.612;1.572;2022-10-16T01:51:37;98866.03;;;22.76;52.93
67738;BME280;54534;43.612;1.572;2022-10-16T01:54:04;98866.88;;;22.76;53.03
67738;BME280;54534;43.612;1.572;2022-10-16T01:56:33;98865.19;;;22.75;53.22
67738;BME280;54534;43.612;1.572;2022-10-16T01:59:06;98863.38;;;22.76;53.03
67738;BME280;54534;43.612;1.572;2022-10-16T02:01:37;98866.88;;;22.76;53.01
67738;BME280;54534;43.612;1.572;2022-10-16T02:04:09;98865.19;;;22.75;52.98
67738;BME280;54534;43.612;1.572;2022-10-16T02:06:37;98864.34;;;22.75;53.04
67738;BME280;54534;43.612;1.572;2022-10-16T02:09:02;98870.56;;;22.75;53.01
67738;BME280;54534;43.612;1.572;2022-10-16T02:11:28;98859.00;;;22.75;53.03
67738;BME280;54534;43.612;1.572;2022-10-16T02:14:11;98863.53;;;22.74;53.11
67738;BME280;54534;43.612;1.572;2022-10-16T02:16:45;98870.56;;;22.75;52.90
67738;BME280;54534;43.612;1.572;2022-10-16T02:19:13;98863.53;;;22.74;53.09
67738;BME280;54534;43.612;1.572;2022-10-16T02:21:44;98864.34;;;22.75;53.07
67738;BME280;54534;43.612;1.572;2022-10-16T02:29:39;98844.91;;;22.73;52.89
67738;BME280;54534;43.612;1.572;2022-10-16T02:32:07;98844.91;;;22.73;52.99
67738;BME280;54534;43.612;1.572;2022-10-16T02:34:34;98844.06;;;22.72;53.13
67738;BME280;54534;43.612;1.572;2022-10-16T02:37:03;98844.06;;;22.72;53.04
67738;BME280;54534;43.612;1.572;2022-10-16T02:39:30;98841.38;;;22.72;53.11
67738;BME280;54534;43.612;1.572;2022-10-16T02:41:56;98855.63;;;22.73;52.98
67738;BME280;54534;43.612;1.572;2022-10-16T02:44:21;98843.25;;;22.72;52.99
67738;BME280;54534;43.612;1.572;2022-10-16T02:46:46;98838.72;;;22.72;52.93
67738;BME280;54534;43.612;1.572;2022-10-16T02:49:12;98844.06;;;22.72;53.06
67738;BME280;54534;43.612;1.572;2022-10-16T02:51:37;98843.25;;;22.72;53.01
67738;BME280;54534;43.612;1.572;2022-10-16T02:54:03;98839.72;;;22.71;53.14
67738;BME280;54534;43.612;1.572;2022-10-16T02:56:28;98836.03;;;22.72;53.02
67738;BME280;54534;43.612;1.572;2022-10-16T02:58:55;98835.34;;;22.70;53.08
67738;BME280;54534;43.612;1.572;2022-10-16T03:01:21;98839.72;;;22.71;52.97
67738;BME280;54534;43.612;1.572;2022-10-16T03:03:46;98834.38;;;22.71;53.13
67738;BME280;54534;43.612;1.572;2022-10-16T03:06:12;98841.56;;;22.71;53.00
67738;BME280;54534;43.612;1.572;2022-10-16T03:08:37;98844.25;;;22.71;53.07
67738;BME280;54534;43.612;1.572;2022-10-16T03:11:02;98842.53;;;22.70;53.06
67738;BME280;54534;43.612;1.572;2022-10-16T03:13:28;98848.75;;;22.70;53.13
67738;BME280;54534;43.612;1.572;2022-10-16T03:15:53;98848.75;;;22.70;53.15
67738;BME280;54534;43.612;1.572;2022-10-16T03:18:18;98847.78;;;22.71;53.15
67738;BME280;54534;43.612;1.572;2022-10-16T03:20:44;98856.78;;;22.70;53.09
67738;BME280;54534;43.612;1.572;2022-10-16T03:23:10;98850.56;;;22.70;53.02
67738;BME280;54534;43.612;1.572;2022-10-16T03:25:35;98847.06;;;22.69;53.09
67738;BME280;54534;43.612;1.572;2022-10-16T03:28:01;98856.78;;;22.70;53.07
67738;BME280;54534;43.612;1.572;2022-10-16T03:30:27;98863.00;;;22.71;53.16
67738;BME280;54534;43.612;1.572;2022-10-16T03:32:52;98855.91;;;22.70;53.16
67738;BME280;54534;43.612;1.572;2022-10-16T03:35:20;98863.00;;;22.71;53.28
67738;BME280;54534;43.612;1.572;2022-10-16T03:37:45;98849.75;;;22.69;53.15
67738;BME280;54534;43.612;1.572;2022-10-16T03:40:11;98857.78;;;22.69;53.22
67738;BME280;54534;43.612;1.572;2022-10-16T03:42:37;98851.56;;;22.69;53.29
67738;BME280;54534;43.612;1.572;2022-10-16T03:45:02;98855.09;;;22.69;53.16
67738;BME280;54534;43.612;1.572;2022-10-16T03:47:28;98860.47;;;22.69;53.26
67738;BME280;54534;43.612;1.572;2022-10-16T03:49:53;98849.75;;;22.69;53.29
67738;BME280;54534;43.612;1.572;2022-10-16T03:52:19;98853.25;;;22.70;53.30
67738;BME280;54534;43.612;1.572;2022-10-16T03:54:44;98854.25;;;22.69;53.20
67738;BME280;54534;43.612;1.572;2022-10-16T03:57:10;98867.66;;;22.69;53.21
67738;BME280;54534;43.612;1.572;2022-10-16T03:59:36;98864.13;;;22.68;53.13
67738;BME280;54534;43.612;1.572;2022-10-16T04:02:01;98871.19;;;22.69;53.19
67738;BME280;54534;43.612;1.572;2022-10-16T04:04:27;98866.81;;;22.68;53.14
67738;BME280;54534;43.612;1.572;2022-10-16T04:06:52;98864.13;;;22.68;53.22
67738;BME280;54534;43.612;1.572;2022-10-16T04:09:17;98868.66;;;22.67;53.09
67738;BME280;54534;43.612;1.572;2022-10-16T04:11:43;98872.16;;;22.68;53.16
67738;BME280;54534;43.612;1.572;2022-10-16T04:14:08;98862.44;;;22.67;53.31
67738;BME280;54534;43.612;1.572;2022-10-16T04:16:34;98867.78;;;22.67;52.99
67738;BME280;54534;43.612;1.572;2022-10-16T04:18:59;98866.13;;;22.66;53.30
67738;BME280;54534;43.612;1.572;2022-10-16T04:21:24;98865.13;;;22.67;53.16
67738;BME280;54534;43.612;1.572;2022-10-16T04:23:50;98859.75;;;22.67;53.24
67738;BME280;54534;43.612;1.572;2022-10-16T04:26:15;98862.44;;;22.67;53.31
67738;BME280;54534;43.612;1.572;2022-10-16T04:28:40;98860.78;;;22.66;53.29
67738;BME280;54534;43.612;1.572;2022-10-16T04:31:06;98860.78;;;22.66;53.29
67738;BME280;54534;43.612;1.572;2022-10-16T04:33:32;98867.78;;;22.67;53.30
67738;BME280;54534;43.612;1.572;2022-10-16T04:35:59;98866.97;;;22.66;53.57
67738;BME280;54534;43.612;1.572;2022-10-16T04:38:25;98867.78;;;22.67;53.21
67738;BME280;54534;43.612;1.572;2022-10-16T04:40:51;98866.97;;;22.66;53.22
67738;BME280;54534;43.612;1.572;2022-10-16T04:43:16;98865.28;;;22.65;53.37
67738;BME280;54534;43.612;1.572;2022-10-16T04:45:42;98870.47;;;22.67;53.32
67738;BME280;54534;43.612;1.572;2022-10-16T04:48:07;98866.13;;;22.66;53.30
67738;BME280;54534;43.612;1.572;2022-10-16T04:50:32;98863.47;;;22.66;53.24
67738;BME280;54534;43.612;1.572;2022-10-16T04:52:58;98863.47;;;22.66;53.31
67738;BME280;54534;43.612;1.572;2022-10-16T04:55:23;98876.00;;;22.65;53.28
67738;BME280;54534;43.612;1.572;2022-10-16T04:57:49;98868.81;;;22.66;53.33
67738;BME280;54534;43.612;1.572;2022-10-16T05:00:14;98882.22;;;22.66;53.46
67738;BME280;54534;43.612;1.572;2022-10-16T05:02:40;98882.22;;;22.66;53.40
67738;BME280;54534;43.612;1.572;2022-10-16T05:05:06;98881.06;;;22.69;53.37
67738;BME280;54534;43.612;1.572;2022-10-16T05:07:32;98890.94;;;22.68;53.15
67738;BME280;54534;43.612;1.572;2022-10-16T05:09:57;98884.59;;;22.69;53.29
67738;BME280;54534;43.612;1.572;2022-10-16T05:12:23;98882.72;;;22.70;53.30
67738;BME280;54534;43.612;1.572;2022-10-16T05:14:48;98897.13;;;22.69;53.29
67738;BME280;54534;43.612;1.572;2022-10-16T05:17:14;98892.94;;;22.66;53.10
67738;BME280;54534;43.612;1.572;2022-10-16T05:19:39;98894.94;;;22.64;53.24
67738;BME280;54534;43.612;1.572;2022-10-16T05:22:04;98897.44;;;22.65;53.24
67738;BME280;54534;43.612;1.572;2022-10-16T05:24:30;98898.28;;;22.66;53.52
67738;BME280;54534;43.612;1.572;2022-10-16T05:26:56;98895.75;;;22.64;53.43
67738;BME280;54534;43.612;1.572;2022-10-16T05:29:21;98907.31;;;22.65;53.46
67738;BME280;54534;43.612;1.572;2022-10-16T05:31:50;98905.47;;;22.65;53.30
67738;BME280;54534;43.612;1.572;2022-10-16T05:34:16;98904.63;;;22.65;53.31
67738;BME280;54534;43.612;1.572;2022-10-16T05:36:41;98908.34;;;22.64;53.44
67738;BME280;54534;43.612;1.572;2022-10-16T05:39:07;98902.97;;;22.64;53.46
67738;BME280;54534;43.612;1.572;2022-10-16T05:41:32;98915.34;;;22.65;53.46
67738;BME280;54534;43.612;1.572;2022-10-16T05:43:57;98911.84;;;22.64;53.45
67738;BME280;54534;43.612;1.572;2022-10-16T05:46:23;98917.19;;;22.64;53.40
67738;BME280;54534;43.612;1.572;2022-10-16T05:48:51;98918.03;;;22.65;53.57
67738;BME280;54534;43.612;1.572;2022-10-16T05:51:16;98915.53;;;22.63;53.34
67738;BME280;54534;43.612;1.572;2022-10-16T05:53:41;98912.69;;;22.65;53.50
67738;BME280;54534;43.612;1.572;2022-10-16T05:56:09;98905.66;;;22.64;53.48
67738;BME280;54534;43.612;1.572;2022-10-16T05:58:36;98902.97;;;22.64;53.42
67738;BME280;54534;43.612;1.572;2022-10-16T06:01:04;98900.28;;;22.64;53.45
67738;BME280;54534;43.612;1.572;2022-10-16T06:03:30;98897.63;;;22.64;53.41
67738;BME280;54534;43.612;1.572;2022-10-16T06:05:56;98900.28;;;22.64;53.61
67738;BME280;54534;43.612;1.572;2022-10-16T06:08:22;98903.97;;;22.63;53.41
67738;BME280;54534;43.612;1.572;2022-10-16T06:10:49;98903.97;;;22.63;53.52
67738;BME280;54534;43.612;1.572;2022-10-16T06:13:24;98908.34;;;22.64;53.56
67738;BME280;54534;43.612;1.572;2022-10-16T06:15:50;98912.84;;;22.63;53.41
67738;BME280;54534;43.612;1.572;2022-10-16T06:18:15;98919.06;;;22.64;53.53
67738;BME280;54534;43.612;1.572;2022-10-16T06:20:40;98912.00;;;22.63;53.48
67738;BME280;54534;43.612;1.572;2022-10-16T06:23:06;98915.66;;;22.62;53.63
67738;BME280;54534;43.612;1.572;2022-10-16T06:25:31;98925.41;;;22.63;53.58
67738;BME280;54534;43.612;1.572;2022-10-16T06:27:57;98932.44;;;22.64;53.48
67738;BME280;54534;43.612;1.572;2022-10-16T06:30:22;98933.44;;;22.63;53.66
67738;BME280;54534;43.612;1.572;2022-10-16T06:32:48;98935.28;;;22.62;53.53
67738;BME280;54534;43.612;1.572;2022-10-16T06:35:13;98935.28;;;22.62;53.46
67738;BME280;54534;43.612;1.572;2022-10-16T06:37:39;98938.78;;;22.63;53.50
67738;BME280;54534;43.612;1.572;2022-10-16T06:40:04;98938.78;;;22.63;53.73
67738;BME280;54534;43.612;1.572;2022-10-16T06:42:30;98938.78;;;22.63;53.63
67738;BME280;54534;43.612;1.572;2022-10-16T06:44:55;98939.78;;;22.62;53.47
67738;BME280;54534;43.612;1.572;2022-10-16T06:47:21;98951.22;;;22.64;53.56
67738;BME280;54534;43.612;1.572;2022-10-16T06:49:46;98953.19;;;22.62;53.70
67738;BME280;54534;43.612;1.572;2022-10-16T06:52:12;98959.38;;;22.62;53.52
67738;BME280;54534;43.612;1.572;2022-10-16T06:54:37;98967.41;;;22.62;53.58
67738;BME280;54534;43.612;1.572;2022-10-16T06:57:02;98961.09;;;22.63;53.46
67738;BME280;54534;43.612;1.572;2022-10-16T06:59:28;98968.28;;;22.63;53.49
67738;BME280;54534;43.612;1.572;2022-10-16T07:01:53;98968.28;;;22.63;53.60
67738;BME280;54534;43.612;1.572;2022-10-16T07:04:19;98974.63;;;22.62;53.78
67738;BME280;54534;43.612;1.572;2022-10-16T07:06:44;98971.13;;;22.61;53.82
67738;BME280;54534;43.612;1.572;2022-10-16T07:09:10;98973.63;;;22.63;53.79
67738;BME280;54534;43.612;1.572;2022-10-16T07:11:38;98971.13;;;22.61;53.65
67738;BME280;54534;43.612;1.572;2022-10-16T07:14:04;98971.94;;;22.62;53.63
67738;BME280;54534;43.612;1.572;2022-10-16T07:16:32;98974.63;;;22.62;53.73
67738;BME280;54534;43.612;1.572;2022-10-16T07:18:59;98974.63;;;22.62;53.82
67738;BME280;54534;43.612;1.572;2022-10-16T07:21:27;98980.81;;;22.62;53.70
67738;BME280;54534;43.612;1.572;2022-10-16T07:23:56;98984.34;;;22.63;53.76
67738;BME280;54534;43.612;1.572;2022-10-16T07:26:23;98984.34;;;22.63;53.76
67738;BME280;54534;43.612;1.572;2022-10-16T07:28:49;99001.41;;;22.62;53.94
67738;BME280;54534;43.612;1.572;2022-10-16T07:31:16;98998.59;;;22.63;53.94
67738;BME280;54534;43.612;1.572;2022-10-16T07:33:43;99000.59;;;22.61;53.97
67738;BME280;54534;43.612;1.572;2022-10-16T07:36:10;98998.72;;;22.62;53.92
67738;BME280;54534;43.612;1.572;2022-10-16T07:38:36;99000.44;;;22.63;54.02
67738;BME280;54534;43.612;1.572;2022-10-16T07:41:03;99002.25;;;22.62;53.97
67738;BME280;54534;43.612;1.572;2022-10-16T07:43:29;99006.63;;;22.63;53.94
67738;BME280;54534;43.612;1.572;2022-10-16T07:45:55;99020.88;;;22.64;54.21
67738;BME280;54534;43.612;1.572;2022-10-16T07:48:22;99018.19;;;22.64;54.17
67738;BME280;54534;43.612;1.572;2022-10-16T07:50:48;99015.53;;;22.64;53.89
67738;BME280;54534;43.612;1.572;2022-10-16T07:53:13;99018.19;;;22.64;54.15
67738;BME280;54534;43.612;1.572;2022-10-16T07:55:39;99021.69;;;22.64;54.10
67738;BME280;54534;43.612;1.572;2022-10-16T07:58:04;99020.88;;;22.64;54.22
67738;BME280;54534;43.612;1.572;2022-10-16T08:00:30;99020.88;;;22.64;54.27
67738;BME280;54534;43.612;1.572;2022-10-16T08:02:57;99024.53;;;22.63;54.09
67738;BME280;54534;43.612;1.572;2022-10-16T08:05:28;99019.19;;;22.63;54.04
67738;BME280;54534;43.612;1.572;2022-10-16T08:07:55;99026.25;;;22.64;54.27
67738;BME280;54534;43.612;1.572;2022-10-16T08:10:23;99024.38;;;22.64;54.01
67738;BME280;54534;43.612;1.572;2022-10-16T08:12:50;99031.59;;;22.64;54.09
67738;BME280;54534;43.612;1.572;2022-10-16T08:15:15;99026.06;;;22.65;54.29
67738;BME280;54534;43.612;1.572;2022-10-16T08:17:40;99027.91;;;22.65;54.36
67738;BME280;54534;43.612;1.572;2022-10-16T08:20:06;99023.22;;;22.67;54.50
67738;BME280;54534;43.612;1.572;2022-10-16T08:22:32;99032.28;;;22.66;54.46
67738;BME280;54534;43.612;1.572;2022-10-16T08:24:57;99035.81;;;22.66;54.41
67738;BME280;54534;43.612;1.572;2022-10-16T08:27:23;99041.97;;;22.67;54.43
67738;BME280;54534;43.612;1.572;2022-10-16T08:29:49;99033.94;;;22.67;54.41
67738;BME280;54534;43.612;1.572;2022-10-16T08:32:14;99033.94;;;22.67;54.38
67738;BME280;54534;43.612;1.572;2022-10-16T08:34:40;99037.63;;;22.66;54.35
67738;BME280;54534;43.612;1.572;2022-10-16T08:37:05;99040.16;;;22.67;54.48
67738;BME280;54534;43.612;1.572;2022-10-16T08:39:33;99039.31;;;22.67;54.30
67738;BME280;54534;43.612;1.572;2022-10-16T08:49:33;99050.03;;;22.67;54.52
67738;BME280;54534;43.612;1.572;2022-10-16T08:51:58;99045.50;;;22.67;54.56
67738;BME280;54534;43.612;1.572;2022-10-16T08:57:09;99058.91;;;22.67;54.51
67738;BME280;54534;43.612;1.572;2022-10-16T08:59:36;99050.88;;;22.67;54.59
67738;BME280;54534;43.612;1.572;2022-10-16T09:02:02;99056.22;;;22.67;54.72
67738;BME280;54534;43.612;1.572;2022-10-16T09:10:24;99051.03;;;22.66;54.79
67738;BME280;54534;43.612;1.572;2022-10-16T09:13:07;99053.53;;;22.67;54.86
67738;BME280;54534;43.612;1.572;2022-10-16T09:18:28;99052.56;;;22.69;55.30
67738;BME280;54534;43.612;1.572;2022-10-16T09:21:01;99053.41;;;22.69;55.29
67738;BME280;54534;43.612;1.572;2022-10-16T09:23:34;99054.22;;;22.70;55.21
67738;BME280;54534;43.612;1.572;2022-10-16T09:26:01;99048.88;;;22.70;55.42
67738;BME280;54534;43.612;1.572;2022-10-16T09:28:27;99049.75;;;22.70;55.34
67738;BME280;54534;43.612;1.572;2022-10-16T09:30:53;99043.41;;;22.71;55.41
67738;BME280;54534;43.612;1.572;2022-10-16T09:33:22;99041.56;;;22.72;55.58
67738;BME280;54534;43.612;1.572;2022-10-16T09:35:50;99034.50;;;22.71;55.70
67738;BME280;54534;43.612;1.572;2022-10-16T09:38:31;99040.56;;;22.73;55.36
67738;BME280;54534;43.612;1.572;2022-10-16T09:40:58;99045.06;;;22.72;55.37
67738;BME280;54534;43.612;1.572;2022-10-16T09:43:34;99038.91;;;22.72;55.38
67738;BME280;54534;43.612;1.572;2022-10-16T09:46:07;99032.69;;;22.71;55.44
67738;BME280;54534;43.612;1.572;2022-10-16T09:48:38;99045.06;;;22.72;55.38
67738;BME280;54534;43.612;1.572;2022-10-16T09:51:13;99044.25;;;22.72;55.38
67738;BME280;54534;43.612;1.572;2022-10-16T09:53:45;99038.72;;;22.73;55.50
67738;BME280;54534;43.612;1.572;2022-10-16T09:56:24;99041.41;;;22.73;55.49
67738;BME280;54534;43.612;1.572;2022-10-16T09:58:54;99037.75;;;22.74;55.58
67738;BME280;54534;43.612;1.572;2022-10-16T10:01:21;99039.56;;;22.74;55.59
67738;BME280;54534;43.612;1.572;2022-10-16T10:03:48;99042.25;;;22.74;55.63
67738;BME280;54534;43.612;1.572;2022-10-16T10:06:26;99033.38;;;22.73;55.59
67738;BME280;54534;43.612;1.572;2022-10-16T10:16:47;99050.00;;;22.77;55.44
67738;BME280;54534;43.612;1.572;2022-10-16T10:19:21;99041.94;;;22.77;55.43
67738;BME280;54534;43.612;1.572;2022-10-16T10:21:48;99050.81;;;22.77;55.64
67738;BME280;54534;43.612;1.572;2022-10-16T10:24:16;99045.63;;;22.76;55.45
67738;BME280;54534;43.612;1.572;2022-10-16T10:26:49;99047.31;;;22.77;55.60
67738;BME280;54534;43.612;1.572;2022-10-16T10:29:26;99032.03;;;22.77;55.47
67738;BME280;54534;43.612;1.572;2022-10-16T10:32:08;99051.66;;;22.78;55.53
67738;BME280;54534;43.612;1.572;2022-10-16T10:41:01;99030.22;;;22.78;55.29
67738;BME280;54534;43.612;1.572;2022-10-16T10:45:59;99029.38;;;22.77;55.48
67738;BME280;54534;43.612;1.572;2022-10-16T10:51:13;99036.25;;;22.80;55.31
67738;BME280;54534;43.612;1.572;2022-10-16T10:56:51;99021.88;;;22.81;55.36
67738;BME280;54534;43.612;1.572;2022-10-16T11:02:31;99007.63;;;22.81;55.40
67738;BME280;54534;43.612;1.572;2022-10-16T11:05:45;99013.81;;;22.81;55.58
67738;BME280;54534;43.612;1.572;2022-10-16T11:08:22;99013.66;;;22.83;55.67
67738;BME280;54534;43.612;1.572;2022-10-16T11:11:02;99017.03;;;22.85;55.83
67738;BME280;54534;43.612;1.572;2022-10-16T11:16:19;99009.81;;;22.85;55.90
67738;BME280;54534;43.612;1.572;2022-10-16T11:24:53;99017.72;;;22.87;56.12
67738;BME280;54534;43.612;1.572;2022-10-16T11:27:26;99014.88;;;22.88;56.17
67738;BME280;54534;43.612;1.572;2022-10-16T11:29:58;99013.88;;;22.89;56.22
67738;BME280;54534;43.612;1.572;2022-10-16T11:32:32;99007.50;;;22.91;56.09
67738;BME280;54534;43.612;1.572;2022-10-16T11:35:11;99005.53;;;22.93;55.98
67738;BME280;54534;43.612;1.572;2022-10-16T11:37:43;99011.72;;;22.93;56.01
67738;BME280;54534;43.612;1.572;2022-10-16T11:40:24;99011.88;;;22.92;55.93
67738;BME280;54534;43.612;1.572;2022-10-16T11:42:58;98993.97;;;22.92;55.87
67738;BME280;54534;43.612;1.572;2022-10-16T11:45:36;99000.84;;;22.95;56.00
67738;BME280;54534;43.612;1.572;2022-10-16T11:48:30;99005.19;;;22.96;55.84
67738;BME280;54534;43.612;1.572;2022-10-16T11:54:22;99003.34;;;22.96;55.76
67738;BME280;54534;43.612;1.572;2022-10-16T11:56:54;98995.31;;;22.96;56.02
67738;BME280;54534;43.612;1.572;2022-10-16T11:59:40;98983.59;;;22.97;55.84
67738;BME280;54534;43.612;1.572;2022-10-16T12:02:29;98987.97;;;22.98;55.90
67738;BME280;54534;43.612;1.572;2022-10-16T12:07:40;98963.84;;;22.98;55.81
67738;BME280;54534;43.612;1.572;2022-10-16T12:10:27;98955.63;;;23.00;55.80
67738;BME280;54534;43.612;1.572;2022-10-16T12:12:53;98940.41;;;23.00;55.76
67738;BME280;54534;43.612;1.572;2022-10-16T12:17:51;98939.25;;;23.03;55.78
67738;BME280;54534;43.612;1.572;2022-10-16T12:22:54;98951.63;;;23.04;55.71
67738;BME280;54534;43.612;1.572;2022-10-16T12:25:24;98939.06;;;23.05;55.82
67738;BME280;54534;43.612;1.572;2022-10-16T12:30:23;98930.03;;;23.06;55.65
67738;BME280;54534;43.612;1.572;2022-10-16T12:32:57;98929.00;;;23.07;55.71
67738;BME280;54534;43.612;1.572;2022-10-16T12:35:30;98920.81;;;23.08;55.61
67738;BME280;54534;43.612;1.572;2022-10-16T12:38:26;98933.22;;;23.09;55.59
67738;BME280;54534;43.612;1.572;2022-10-16T12:41:08;98921.66;;;23.09;55.53
67738;BME280;54534;43.612;1.572;2022-10-16T12:43:40;98917.97;;;23.10;55.45
67738;BME280;54534;43.612;1.572;2022-10-16T12:48:40;98927.72;;;23.11;55.50
67738;BME280;54534;43.612;1.572;2022-10-16T12:54:11;98931.59;;;23.17;54.54
67738;BME280;54534;43.612;1.572;2022-10-16T13:10:31;98944.31;;;23.50;52.38
67738;BME280;54534;43.612;1.572;2022-10-16T13:21:17;98958.28;;;23.62;51.71
67738;BME280;54534;43.612;1.572;2022-10-16T13:26:46;98955.41;;;23.63;51.49
67738;BME280;54534;43.612;1.572;2022-10-16T13:29:15;98960.63;;;23.65;51.60
67738;BME280;54534;43.612;1.572;2022-10-16T13:31:42;98964.81;;;23.67;51.54
67738;BME280;54534;43.612;1.572;2022-10-16T13:34:14;98967.34;;;23.69;51.37
67738;BME280;54534;43.612;1.572;2022-10-16T13:36:45;98965.53;;;23.70;51.03
67738;BME280;54534;43.612;1.572;2022-10-16T13:39:16;98963.66;;;23.70;51.53
67738;BME280;54534;43.612;1.572;2022-10-16T13:41:57;98960.16;;;23.70;51.39
67738;BME280;54534;43.612;1.572;2022-10-16T13:44:23;98964.50;;;23.71;51.40
67738;BME280;54534;43.612;1.572;2022-10-16T13:46:58;98970.88;;;23.70;51.51
67738;BME280;54534;43.612;1.572;2022-10-16T13:49:24;98959.31;;;23.69;51.53
67738;BME280;54534;43.612;1.572;2022-10-16T13:51:57;98959.31;;;23.69;51.62
67738;BME280;54534;43.612;1.572;2022-10-16T13:54:24;98975.56;;;23.67;51.70
67738;BME280;54534;43.612;1.572;2022-10-16T13:56:49;98965.66;;;23.68;51.87
67738;BME280;54534;43.612;1.572;2022-10-16T13:59:36;98947.06;;;23.66;51.84
67738;BME280;54534;43.612;1.572;2022-10-16T14:02:19;98951.41;;;23.67;51.81
67738;BME280;54534;43.612;1.572;2022-10-16T14:04:47;98944.38;;;23.66;52.04
67738;BME280;54534;43.612;1.572;2022-10-16T14:07:24;98959.44;;;23.67;52.08
67738;BME280;54534;43.612;1.572;2022-10-16T14:09:51;98973.88;;;23.66;52.12
67738;BME280;54534;43.612;1.572;2022-10-16T14:12:17;98962.97;;;23.68;52.43
67738;BME280;54534;43.612;1.572;2022-10-16T14:14:45;98971.88;;;23.69;52.28
67738;BME280;54534;43.612;1.572;2022-10-16T14:17:18;98964.81;;;23.67;52.31
67738;BME280;54534;43.612;1.572;2022-10-16T14:19:47;98971.88;;;23.69;52.39
67738;BME280;54534;43.612;1.572;2022-10-16T14:22:44;98971.88;;;23.69;52.48
67738;BME280;54534;43.612;1.572;2022-10-16T14:28:17;98975.41;;;23.69;52.54
67738;BME280;54534;43.612;1.572;2022-10-16T14:38:25;98971.69;;;23.70;52.94
67738;BME280;54534;43.612;1.572;2022-10-16T14:40:50;98972.53;;;23.71;53.03
67738;BME280;54534;43.612;1.572;2022-10-16T14:43:36;98961.66;;;23.72;52.98
67738;BME280;54534;43.612;1.572;2022-10-16T14:46:04;98974.25;;;23.72;52.88
67738;BME280;54534;43.612;1.572;2022-10-16T14:48:32;98988.50;;;23.72;53.03
67738;BME280;54534;43.612;1.572;2022-10-16T14:50:57;98980.28;;;23.74;53.11
67738;BME280;54534;43.612;1.572;2022-10-16T14:53:22;98969.53;;;23.74;53.09
67738;BME280;54534;43.612;1.572;2022-10-16T14:55:48;98970.38;;;23.74;53.11
67738;BME280;54534;43.612;1.572;2022-10-16T14:58:17;98984.66;;;23.75;53.22
67738;BME280;54534;43.612;1.572;2022-10-16T15:00:43;98988.19;;;23.75;53.29
67738;BME280;54534;43.612;1.572;2022-10-16T15:03:09;98995.22;;;23.76;53.26
67738;BME280;54534;43.612;1.572;2022-10-16T15:05:34;98991.88;;;23.74;53.27
67738;BME280;54534;43.612;1.572;2022-10-16T15:08:00;98995.22;;;23.76;53.31
67738;BME280;54534;43.612;1.572;2022-10-16T15:10:27;99003.28;;;23.76;53.35
67738;BME280;54534;43.612;1.572;2022-10-16T15:12:53;99002.28;;;23.77;53.55